Time;durP1;ratioP1;P1;durP2;ratioP2;P2;SDS_P1;SDS_P2;PMS_P1;PMS_P2;Temp;Humidity;BMP_temperature;BMP_pressure;BME280_temperature;BME280_humidity;BME280_pressure;Samples;Min_cycle;Max_cycle;Signal;HPM_P1;HPM_P2
2023/12/08 00:02:18;;;;;;;;;;;;;;;-0.16;100.00;95879.53;5083631;28;19975;-72
2023/12/08 00:04:43;;;;;;;;;;;;;;;-0.16;100.00;95874.38;5083589;28;19954;-69
2023/12/08 00:07:09;;;;;;;;;;;;;;;-0.11;100.00;95876.47;5083466;28;20024;-73
2023/12/08 00:09:35;;;;;;;;;;;;;;;-0.08;100.00;95876.16;5083508;28;20032;-75
2023/12/08 00:12:01;;;;;;;;;;;;;;;-0.05;100.00;95886.09;5083480;28;19998;-75
2023/12/08 00:14:27;;;;;;;;;;;;;;;-0.01;100.00;95882.22;5082850;28;19943;-75
2023/12/08 00:16:53;;;;;;;;;;;;;;;0.04;100.00;95886.88;5083426;28;19956;-75
2023/12/08 00:19:19;;;;;;;;;;;;;;;0.03;100.00;95857.72;5081847;28;20349;-75
2023/12/08 00:21:44;;;;;;;;;;;;;;;0.03;100.00;95856.94;5082814;28;20333;-76
2023/12/08 00:24:11;;;;;;;;;;;;;;;0.01;100.00;95854.53;5081788;28;19998;-73
2023/12/08 00:26:37;;;;;;;;;;;;;;;-0.01;100.00;95859.03;5082812;28;20249;-74
2023/12/08 00:29:04;;;;;;;;;;;;;;;0.01;100.00;95864.81;5086171;28;19954;-73
2023/12/08 00:31:29;;;;;;;;;;;;;;;0.02;100.00;95860.47;5086860;28;19963;-74
2023/12/08 00:33:56;;;;;;;;;;;;;;;0.03;100.00;95854.38;5086729;28;19958;-73
2023/12/08 00:36:22;;;;;;;;;;;;;;;0.02;100.00;95847.59;5086279;28;19963;-73
2023/12/08 00:38:48;;;;;;;;;;;;;;;0.00;100.00;95850.34;5087066;28;19960;-74
2023/12/08 00:41:14;;;;;;;;;;;;;;;-0.02;100.00;95844.56;5086709;28;20134;-73
2023/12/08 00:43:40;;;;;;;;;;;;;;;-0.04;100.00;95821.53;5068204;28;20264;-69
2023/12/08 00:46:06;;;;;;;;;;;;;;;-0.03;100.00;95812.78;5086746;28;20252;-72
2023/12/08 00:48:32;;;;;;;;;;;;;;;-0.01;100.00;95821.16;5086598;28;19959;-73
2023/12/08 00:50:57;;;;;;;;;;;;;;;0.03;100.00;95813.13;5086301;28;19958;-72
2023/12/08 00:53:23;;;;;;;;;;;;;;;0.07;100.00;95797.16;5086201;28;20273;-73
2023/12/08 00:55:49;;;;;;;;;;;;;;;0.12;100.00;95812.09;5086105;28;20239;-72
2023/12/08 00:58:15;;;;;;;;;;;;;;;0.18;100.00;95811.44;5084696;28;20246;-72
2023/12/08 01:00:41;;;;;;;;;;;;;;;0.18;100.00;95814.81;5085763;28;19962;-72
2023/12/08 01:03:07;;;;;;;;;;;;;;;0.19;100.00;95823.38;5086259;28;20274;-73
2023/12/08 01:05:32;;;;;;;;;;;;;;;0.22;100.00;95830.75;5086393;28;19957;-73
2023/12/08 01:07:58;;;;;;;;;;;;;;;0.25;100.00;95837.34;5084631;28;19999;-72
2023/12/08 01:10:25;;;;;;;;;;;;;;;0.27;100.00;95838.78;5084828;28;19963;-72
2023/12/08 01:12:50;;;;;;;;;;;;;;;0.26;100.00;95838.97;5085863;28;19967;-73
2023/12/08 01:15:16;;;;;;;;;;;;;;;0.25;100.00;95837.34;5085652;28;19963;-72
2023/12/08 01:17:42;;;;;;;;;;;;;;;0.26;100.00;95831.22;5085778;28;19976;-71
2023/12/08 01:20:09;;;;;;;;;;;;;;;0.30;100.00;95824.75;5084258;28;19960;-68
2023/12/08 01:22:35;;;;;;;;;;;;;;;0.26;100.00;95811.41;5085850;28;19958;-72
2023/12/08 01:25:02;;;;;;;;;;;;;;;0.23;100.00;95821.22;5085989;28;19958;-73
2023/12/08 01:27:27;;;;;;;;;;;;;;;0.23;100.00;95816.06;5085714;28;19955;-73
2023/12/08 01:29:53;;;;;;;;;;;;;;;0.24;100.00;95805.59;5086028;28;19962;-72
2023/12/08 01:32:19;;;;;;;;;;;;;;;0.25;100.00;95814.94;5085929;28;20003;-72
2023/12/08 01:34:45;;;;;;;;;;;;;;;0.25;100.00;95808.97;5085681;28;19967;-72
2023/12/08 01:37:11;;;;;;;;;;;;;;;0.27;100.00;95807.81;5085604;28;19959;-71
2023/12/08 01:39:37;;;;;;;;;;;;;;;0.31;100.00;95803.94;5085243;28;19957;-67
2023/12/08 01:42:03;;;;;;;;;;;;;;;0.33;100.00;95788.31;5085477;28;19957;-68
2023/12/08 01:44:29;;;;;;;;;;;;;;;0.35;100.00;95787.16;5085189;28;19958;-68
2023/12/08 01:46:55;;;;;;;;;;;;;;;0.37;100.00;95792.16;5085684;28;19964;-68
2023/12/08 01:49:21;;;;;;;;;;;;;;;0.37;100.00;95787.78;5085039;28;19959;-67
2023/12/08 01:51:47;;;;;;;;;;;;;;;0.39;100.00;95796.16;5085437;28;19962;-68
2023/12/08 01:54:14;;;;;;;;;;;;;;;0.42;100.00;95801.94;5085069;28;19951;-67
2023/12/08 01:56:40;;;;;;;;;;;;;;;0.43;100.00;95809.53;5085249;28;19966;-73
2023/12/08 01:59:07;;;;;;;;;;;;;;;0.45;100.00;95809.38;5085133;28;19967;-76
2023/12/08 02:01:33;;;;;;;;;;;;;;;0.45;100.00;95805.00;5085145;28;19963;-74
2023/12/08 02:03:59;;;;;;;;;;;;;;;0.47;100.00;95817.75;5084933;28;20270;-74
2023/12/08 02:06:25;;;;;;;;;;;;;;;0.48;100.00;95802.06;5085012;28;19953;-74
2023/12/08 02:08:51;;;;;;;;;;;;;;;0.48;100.00;95799.50;5084984;28;19966;-76
2023/12/08 02:11:18;;;;;;;;;;;;;;;0.48;100.00;95785.78;5084893;28;19958;-78
2023/12/08 02:13:44;;;;;;;;;;;;;;;0.49;100.00;95803.69;5084980;28;19951;-68
2023/12/08 02:16:18;;;;;;;;;;;;;;;0.50;100.00;95796.75;5083643;28;20215;-73
2023/12/08 02:18:44;;;;;;;;;;;;;;;0.52;100.00;95811.06;5084853;28;19957;-73
2023/12/08 02:21:11;;;;;;;;;;;;;;;0.52;100.00;95795.59;5084464;28;20006;-73
2023/12/08 02:23:37;;;;;;;;;;;;;;;0.54;100.00;95808.34;5083196;28;19969;-73
2023/12/08 02:26:06;;;;;;;;;;;;;;;0.55;100.00;95803.00;5084613;28;19965;-73
2023/12/08 02:28:32;;;;;;;;;;;;;;;0.57;100.00;95802.84;5084707;28;19956;-73
2023/12/08 02:30:59;;;;;;;;;;;;;;;0.57;100.00;95790.75;5084329;28;19996;-74
2023/12/08 02:33:28;;;;;;;;;;;;;;;0.58;100.00;95789.75;5082918;28;19960;-73
2023/12/08 02:35:54;;;;;;;;;;;;;;;0.58;100.00;95789.75;5083118;28;19963;-74
2023/12/08 02:38:20;;;;;;;;;;;;;;;0.58;100.00;95789.75;5084376;28;20218;-74
2023/12/08 02:40:46;;;;;;;;;;;;;;;0.59;100.00;95777.69;5084457;28;19941;-75
2023/12/08 02:43:12;;;;;;;;;;;;;;;0.60;100.00;95779.28;5084171;28;20131;-73
2023/12/08 02:45:38;;;;;;;;;;;;;;;0.60;100.00;95776.69;5084166;28;19960;-74
2023/12/08 02:48:04;;;;;;;;;;;;;;;0.60;100.00;95772.31;5084176;28;20029;-75
2023/12/08 02:50:29;;;;;;;;;;;;;;;0.62;100.00;95764.41;5083268;28;19976;-74
2023/12/08 02:52:55;;;;;;;;;;;;;;;0.62;100.00;95774.75;5066180;28;19967;-68
2023/12/08 02:55:21;;;;;;;;;;;;;;;0.62;100.00;95768.78;5084201;28;20227;-68
2023/12/08 02:57:47;;;;;;;;;;;;;;;0.62;100.00;95763.63;5082621;28;19974;-69
2023/12/08 03:00:13;;;;;;;;;;;;;;;0.62;100.00;95758.47;5082669;28;19970;-68
2023/12/08 03:02:39;;;;;;;;;;;;;;;0.63;100.00;95768.63;5082785;28;20247;-68
2023/12/08 03:05:05;;;;;;;;;;;;;;;0.62;100.00;95785.06;5083942;28;19959;-68
2023/12/08 03:07:31;;;;;;;;;;;;;;;0.63;100.00;95780.69;5083945;28;19962;-68
2023/12/08 03:09:57;;;;;;;;;;;;;;;0.62;100.00;95773.94;5083954;28;19941;-72
2023/12/08 03:12:22;;;;;;;;;;;;;;;0.62;100.00;95754.09;5084055;28;20002;-72
2023/12/08 03:14:48;;;;;;;;;;;;;;;0.58;100.00;95761.38;5083713;28;20217;-73
2023/12/08 03:17:15;;;;;;;;;;;;;;;0.57;100.00;95767.53;5083738;28;19972;-73
2023/12/08 03:19:41;;;;;;;;;;;;;;;0.54;100.00;95767.84;5084237;28;19964;-72
2023/12/08 03:22:07;;;;;;;;;;;;;;;0.52;100.00;95756.91;5083926;28;20163;-73
2023/12/08 03:24:33;;;;;;;;;;;;;;;0.50;100.00;95763.22;5083952;28;19960;-72
2023/12/08 03:26:58;;;;;;;;;;;;;;;0.49;100.00;95765.00;5083645;28;20029;-73
2023/12/08 03:29:24;;;;;;;;;;;;;;;0.48;100.00;95765.97;5083966;28;19956;-72
2023/12/08 03:31:50;;;;;;;;;;;;;;;0.47;100.00;95764.38;5083895;28;20002;-69
2023/12/08 03:34:16;;;;;;;;;;;;;;;0.49;100.00;95780.47;5083828;28;19966;-70
2023/12/08 03:36:42;;;;;;;;;;;;;;;0.50;100.00;95756.28;5083833;28;20034;-70
2023/12/08 03:39:07;;;;;;;;;;;;;;;0.54;100.00;95764.47;5083752;28;19970;-70
2023/12/08 03:41:33;;;;;;;;;;;;;;;0.56;100.00;95771.06;5082817;28;19971;-70
2023/12/08 03:43:59;;;;;;;;;;;;;;;0.56;100.00;95765.91;5083203;28;20174;-70
2023/12/08 03:46:25;;;;;;;;;;;;;;;0.59;100.00;95773.31;5083580;28;20035;-72
2023/12/08 03:48:51;;;;;;;;;;;;;;;0.60;100.00;95756.84;5083698;28;20005;-72
2023/12/08 03:51:17;;;;;;;;;;;;;;;0.60;100.00;95798.13;5083745;28;20027;-73
2023/12/08 03:53:43;;;;;;;;;;;;;;;0.62;100.00;95810.06;5082315;28;19956;-72
2023/12/08 03:56:08;;;;;;;;;;;;;;;0.58;100.00;95812.97;5082451;28;19959;-73
2023/12/08 03:58:34;;;;;;;;;;;;;;;0.58;100.00;95817.34;5083670;28;20280;-73
2023/12/08 04:01:00;;;;;;;;;;;;;;;0.57;100.00;95816.53;5083683;28;20033;-73
2023/12/08 04:03:26;;;;;;;;;;;;;;;0.58;100.00;95805.25;5087290;28;19960;-71
2023/12/08 04:05:52;;;;;;;;;;;;;;;0.60;100.00;95803.28;5087845;28;20021;-70
2023/12/08 04:08:18;;;;;;;;;;;;;;;0.64;100.00;95800.38;5085854;28;19979;-73
2023/12/08 04:10:44;;;;;;;;;;;;;;;0.63;100.00;95797.00;5087159;28;19949;-72
2023/12/08 04:13:10;;;;;;;;;;;;;;;0.65;100.00;95801.97;5086026;28;19972;-73
2023/12/08 04:15:36;;;;;;;;;;;;;;;0.66;100.00;95803.59;5087421;28;20232;-72
2023/12/08 04:18:02;;;;;;;;;;;;;;;0.67;100.00;95795.66;5085962;28;19960;-73
2023/12/08 04:20:28;;;;;;;;;;;;;;;0.72;100.00;95790.81;5086845;28;19990;-72
2023/12/08 04:22:54;;;;;;;;;;;;;;;0.74;100.00;95798.38;5087019;28;20030;-70
2023/12/08 04:25:20;;;;;;;;;;;;;;;0.76;100.00;95789.50;5086975;28;19963;-69
2023/12/08 04:27:46;;;;;;;;;;;;;;;0.77;100.00;95791.06;5069049;28;20083;-69
2023/12/08 04:30:12;;;;;;;;;;;;;;;0.82;100.00;95793.16;5087034;28;19955;-69
2023/12/08 04:32:37;;;;;;;;;;;;;;;0.85;100.00;95784.25;5086805;28;19963;-69
2023/12/08 04:35:03;;;;;;;;;;;;;;;0.87;100.00;95777.94;5085445;28;19957;-68
2023/12/08 04:37:29;;;;;;;;;;;;;;;0.89;100.00;95788.91;5086702;28;19963;-69
2023/12/08 04:39:55;;;;;;;;;;;;;;;0.87;100.00;95788.28;5086557;28;19940;-74
2023/12/08 04:42:21;;;;;;;;;;;;;;;0.85;100.00;95790.22;5085082;28;19962;-71
2023/12/08 04:44:47;;;;;;;;;;;;;;;0.84;100.00;95780.06;5086778;28;19976;-72
2023/12/08 04:47:13;;;;;;;;;;;;;;;0.84;100.00;95783.47;5086703;28;19965;-72
2023/12/08 04:49:39;;;;;;;;;;;;;;;0.84;100.00;95773.16;5086833;28;19953;-71
2023/12/08 04:52:05;;;;;;;;;;;;;;;0.85;100.00;95761.84;5086542;28;19984;-72
2023/12/08 04:54:30;;;;;;;;;;;;;;;0.82;100.00;95759.63;5086514;28;19955;-73
2023/12/08 04:56:56;;;;;;;;;;;;;;;0.78;100.00;95758.34;5086452;28;19963;-73
2023/12/08 04:59:22;;;;;;;;;;;;;;;0.74;100.00;95757.09;5086637;28;19965;-73
2023/12/08 05:01:51;;;;;;;;;;;;;;;0.72;100.00;95764.19;5068511;28;19967;-70
2023/12/08 05:04:21;;;;;;;;;;;;;;;0.70;100.00;95750.66;5086631;28;19969;-69
2023/12/08 05:06:47;;;;;;;;;;;;;;;0.68;100.00;95739.72;5087189;28;19958;-69
2023/12/08 05:09:13;;;;;;;;;;;;;;;0.66;100.00;95741.66;5086460;28;19958;-69
2023/12/08 05:11:39;;;;;;;;;;;;;;;0.65;100.00;95737.47;5086573;28;20173;-69
2023/12/08 05:14:05;;;;;;;;;;;;;;;0.65;100.00;95738.28;5085413;28;19959;-69
2023/12/08 05:16:30;;;;;;;;;;;;;;;0.65;100.00;95745.22;5085677;28;19995;-69
2023/12/08 05:18:56;;;;;;;;;;;;;;;0.65;100.00;95742.63;5086192;28;19958;-72
2023/12/08 05:21:22;;;;;;;;;;;;;;;0.65;100.00;95745.22;5085668;28;20255;-73
2023/12/08 05:23:48;;;;;;;;;;;;;;;0.65;100.00;95745.22;5085592;28;19964;-73
2023/12/08 05:26:14;;;;;;;;;;;;;;;0.65;100.00;95750.38;5085625;28;19987;-73
2023/12/08 05:28:40;;;;;;;;;;;;;;;0.64;100.00;95749.56;5085870;28;19956;-72
2023/12/08 05:31:06;;;;;;;;;;;;;;;0.64;100.00;95751.34;5085787;28;20247;-73
2023/12/08 05:33:32;;;;;;;;;;;;;;;0.64;100.00;95753.94;5086086;28;19958;-73
2023/12/08 05:35:57;;;;;;;;;;;;;;;0.64;100.00;95748.78;5085510;28;20326;-72
2023/12/08 05:38:23;;;;;;;;;;;;;;;0.66;100.00;95752.00;5085639;28;19955;-77
2023/12/08 05:40:49;;;;;;;;;;;;;;;0.66;100.00;95747.63;5085740;28;19989;-78
2023/12/08 05:43:15;;;;;;;;;;;;;;;0.68;100.00;95750.03;5084508;28;20279;-77
2023/12/08 05:45:42;;;;;;;;;;;;;;;0.68;100.00;95750.84;5085752;28;20037;-76
2023/12/08 05:48:07;;;;;;;;;;;;;;;0.71;100.00;95752.25;5085384;28;19980;-76
2023/12/08 05:50:33;;;;;;;;;;;;;;;0.66;100.00;95757.94;5085041;28;20061;-77
2023/12/08 05:52:59;;;;;;;;;;;;;;;0.62;100.00;95756.69;5085570;28;19960;-75
2023/12/08 05:55:25;;;;;;;;;;;;;;;0.64;100.00;95756.53;5085085;28;20103;-68
2023/12/08 05:57:51;;;;;;;;;;;;;;;0.64;100.00;95757.31;5085007;28;19962;-71
2023/12/08 06:00:18;;;;;;;;;;;;;;;0.67;100.00;95758.75;5085080;28;20053;-71
2023/12/08 06:02:45;;;;;;;;;;;;;;;0.71;100.00;95757.41;5085035;28;19969;-71
2023/12/08 06:05:12;;;;;;;;;;;;;;;0.76;100.00;95761.09;5084952;28;20151;-72
2023/12/08 06:07:39;;;;;;;;;;;;;;;0.80;100.00;95764.94;5084896;28;19957;-72
2023/12/08 06:10:05;;;;;;;;;;;;;;;0.79;100.00;95758.16;5084875;28;20022;-72
2023/12/08 06:12:31;;;;;;;;;;;;;;;0.78;100.00;95766.88;5084934;28;19963;-71
2023/12/08 06:15:00;;;;;;;;;;;;;;;0.75;100.00;95762.06;5083557;28;19987;-69
2023/12/08 06:17:26;;;;;;;;;;;;;;;0.77;100.00;95770.44;5083247;28;19959;-70
2023/12/08 06:19:53;;;;;;;;;;;;;;;0.81;100.00;95769.13;5066967;28;20150;-69
2023/12/08 06:22:18;;;;;;;;;;;;;;;0.86;100.00;95772.94;5083142;28;20069;-70
2023/12/08 06:24:44;;;;;;;;;;;;;;;0.90;100.00;95780.16;5084292;28;19963;-70
2023/12/08 06:27:10;;;;;;;;;;;;;;;0.94;100.00;95778.06;5083137;28;20009;-70
2023/12/08 06:29:36;;;;;;;;;;;;;;;0.96;100.00;95782.06;5084521;28;19960;-69
2023/12/08 06:32:02;;;;;;;;;;;;;;;1.00;100.00;95780.72;5084566;28;19997;-71
2023/12/08 06:34:28;;;;;;;;;;;;;;;1.04;100.00;95780.41;5084550;28;20026;-71
2023/12/08 06:36:54;;;;;;;;;;;;;;;1.06;100.00;95773.28;5084457;28;19958;-72
2023/12/08 06:39:20;;;;;;;;;;;;;;;1.06;100.00;95774.09;5083569;28;19952;-71
2023/12/08 06:41:46;;;;;;;;;;;;;;;1.00;100.00;95770.41;5084344;28;20265;-71
2023/12/08 06:44:12;;;;;;;;;;;;;;;0.98;100.00;95764.63;5083390;28;19967;-71
2023/12/08 06:46:38;;;;;;;;;;;;;;;0.97;100.00;95767.41;5084351;28;19964;-72
2023/12/08 06:49:04;;;;;;;;;;;;;;;0.99;100.00;95766.25;5084003;28;19952;-70
2023/12/08 06:51:30;;;;;;;;;;;;;;;1.01;100.00;95771.22;5083776;28;19963;-73
2023/12/08 06:53:58;;;;;;;;;;;;;;;1.03;100.00;95758.94;5083000;28;20351;-69
2023/12/08 06:56:23;;;;;;;;;;;;;;;1.06;100.00;95779.25;5082131;28;19961;-69
2023/12/08 06:58:49;;;;;;;;;;;;;;;1.09;100.00;95785.84;5084230;28;19998;-69
2023/12/08 07:01:15;;;;;;;;;;;;;;;1.11;100.00;95781.28;5083530;28;20008;-69
2023/12/08 07:03:41;;;;;;;;;;;;;;;1.14;100.00;95779.19;5084218;28;19965;-69
2023/12/08 07:06:07;;;;;;;;;;;;;;;1.17;100.00;95772.84;5084074;28;20022;-69
2023/12/08 07:08:33;;;;;;;;;;;;;;;1.17;100.00;95780.59;5083718;28;19965;-69
2023/12/08 07:10:59;;;;;;;;;;;;;;;1.20;100.00;95783.63;5084097;28;19960;-71
2023/12/08 07:13:24;;;;;;;;;;;;;;;1.24;100.00;95783.28;5082903;28;19964;-70
2023/12/08 07:15:50;;;;;;;;;;;;;;;1.27;100.00;95780.34;5084157;28;19952;-70
2023/12/08 07:18:17;;;;;;;;;;;;;;;1.29;100.00;95786.94;5083669;28;20120;-70
2023/12/08 07:20:43;;;;;;;;;;;;;;;1.31;100.00;95779.03;5082102;28;19978;-70
2023/12/08 07:23:08;;;;;;;;;;;;;;;1.33;100.00;95777.88;5083725;28;20025;-70
2023/12/08 07:25:34;;;;;;;;;;;;;;;1.35;100.00;95773.34;5082373;28;20031;-69
2023/12/08 07:28:00;;;;;;;;;;;;;;;1.36;100.00;95774.13;5083904;28;19962;-70
2023/12/08 07:30:26;;;;;;;;;;;;;;;1.37;100.00;95776.53;5083528;28;19958;-70
2023/12/08 07:32:52;;;;;;;;;;;;;;;1.38;100.00;95779.91;5083903;28;20260;-70
2023/12/08 07:35:18;;;;;;;;;;;;;;;1.39;100.00;95786.72;5083749;28;19985;-72
2023/12/08 07:37:44;;;;;;;;;;;;;;;1.42;100.00;95788.91;5086312;28;19953;-70
2023/12/08 07:40:11;;;;;;;;;;;;;;;1.42;100.00;95787.13;5087911;28;20242;-70
2023/12/08 07:42:37;;;;;;;;;;;;;;;1.46;100.00;95786.78;5087804;28;19958;-70
2023/12/08 07:45:06;;;;;;;;;;;;;;;1.47;100.00;95788.38;5087416;28;20056;-73
2023/12/08 07:47:32;;;;;;;;;;;;;;;1.48;100.00;95788.22;5087348;28;20061;-70
2023/12/08 07:49:58;;;;;;;;;;;;;;;1.51;100.00;95794.81;5087300;28;20018;-70
2023/12/08 07:52:25;;;;;;;;;;;;;;;1.55;100.00;95799.44;5087353;28;19955;-70
2023/12/08 07:54:50;;;;;;;;;;;;;;;1.58;100.00;95799.09;5086803;28;19962;-70
2023/12/08 07:57:16;;;;;;;;;;;;;;;1.60;100.00;95810.06;5086040;28;19963;-70
2023/12/08 07:59:42;;;;;;;;;;;;;;;1.62;100.00;95810.69;5087062;28;20245;-70
2023/12/08 08:02:08;;;;;;;;;;;;;;;1.65;100.00;95806.16;5087406;28;19937;-74
2023/12/08 08:04:34;;;;;;;;;;;;;;;1.66;100.00;95798.22;5087468;28;19979;-70
2023/12/08 08:07:00;;;;;;;;;;;;;;;1.71;100.00;95805.44;5087305;28;20112;-71
2023/12/08 08:09:25;;;;;;;;;;;;;;;1.75;100.00;95798.94;5085642;28;19976;-71
2023/12/08 08:11:51;;;;;;;;;;;;;;;1.87;100.00;95799.28;5085962;28;19960;-71
2023/12/08 08:14:18;;;;;;;;;;;;;;;1.90;100.00;95801.50;5069319;28;19977;-71
2023/12/08 08:16:44;;;;;;;;;;;;;;;1.92;100.00;95799.56;5084756;28;19965;-70
2023/12/08 08:19:10;;;;;;;;;;;;;;;1.92;100.00;95804.72;5086776;28;19961;-71
2023/12/08 08:21:36;;;;;;;;;;;;;;;1.92;100.00;95807.31;5085748;28;20028;-70
2023/12/08 08:24:02;;;;;;;;;;;;;;;1.92;100.00;95808.09;5086281;28;20025;-74
2023/12/08 08:26:28;;;;;;;;;;;;;;;1.93;100.00;95811.47;5085556;28;20028;-73
2023/12/08 08:28:54;;;;;;;;;;;;;;;1.94;100.00;95820.84;5086906;28;20000;-73
2023/12/08 08:31:20;;;;;;;;;;;;;;;1.96;100.00;95821.47;5086935;28;20232;-73
2023/12/08 08:33:45;;;;;;;;;;;;;;;1.97;100.00;95823.88;5085482;28;20004;-73
2023/12/08 08:36:12;;;;;;;;;;;;;;;1.99;100.00;95821.91;5085141;28;20016;-73
2023/12/08 08:38:38;;;;;;;;;;;;;;;1.99;100.00;95827.06;5086737;28;19942;-73
2023/12/08 08:41:04;;;;;;;;;;;;;;;2.03;100.00;95812.81;5086601;28;20049;-72
2023/12/08 08:43:29;;;;;;;;;;;;;;;2.03;100.00;95819.78;5086649;28;20061;-70
2023/12/08 08:45:55;;;;;;;;;;;;;;;2.05;100.00;95820.41;5086653;28;19969;-71
2023/12/08 08:48:21;;;;;;;;;;;;;;;2.07;100.00;95815.84;5085373;28;20243;-71
2023/12/08 08:50:48;;;;;;;;;;;;;;;2.09;100.00;95823.44;5086593;28;20027;-70
2023/12/08 08:53:14;;;;;;;;;;;;;;;2.12;100.00;95823.06;5068640;28;19961;-70
2023/12/08 08:55:40;;;;;;;;;;;;;;;2.14;100.00;95826.28;5085181;28;20264;-70
2023/12/08 08:58:06;;;;;;;;;;;;;;;2.15;100.00;95818.34;5085155;28;19960;-71
2023/12/08 09:00:34;;;;;;;;;;;;;;;2.18;100.00;95827.50;5086338;28;19961;-72
2023/12/08 09:03:01;;;;;;;;;;;;;;;2.18;100.00;95833.50;5084756;28;19963;-73
2023/12/08 09:05:27;;;;;;;;;;;;;;;2.20;100.00;95830.72;5086173;28;19999;-72
2023/12/08 09:07:54;;;;;;;;;;;;;;;2.23;100.00;95830.38;5086340;28;19982;-72
2023/12/08 09:10:20;;;;;;;;;;;;;;;2.25;100.00;95828.41;5086259;28;19966;-73
2023/12/08 09:12:45;;;;;;;;;;;;;;;2.28;100.00;95833.22;5086021;28;19959;-72
2023/12/08 09:15:13;;;;;;;;;;;;;;;2.32;100.00;95824.09;5085914;28;20002;-73
2023/12/08 09:17:40;;;;;;;;;;;;;;;2.37;100.00;95815.78;5086182;28;19957;-70
2023/12/08 09:20:08;;;;;;;;;;;;;;;2.76;100.00;95828.38;5086149;28;19965;-74
2023/12/08 09:22:34;;;;;;;;;;;;;;;2.89;100.00;95819.13;5085976;28;19952;-73
2023/12/08 09:25:00;;;;;;;;;;;;;;;2.90;100.00;95834.50;5084167;28;20154;-74
2023/12/08 09:27:26;;;;;;;;;;;;;;;2.89;100.00;95837.25;5084522;28;19967;-73
2023/12/08 09:29:52;;;;;;;;;;;;;;;2.86;100.00;95835.84;5084552;28;20027;-73
2023/12/08 09:32:19;;;;;;;;;;;;;;;2.84;100.00;95835.22;5084345;28;20056;-73
2023/12/08 09:34:45;;;;;;;;;;;;;;;2.83;100.00;95834.44;5085606;28;19957;-72
2023/12/08 09:37:10;;;;;;;;;;;;;;;2.81;100.00;95823.47;5085036;28;19974;-72
2023/12/08 09:39:36;;;;;;;;;;;;;;;2.84;100.00;95827.47;5084440;28;19959;-74
2023/12/08 09:42:05;;;;;;;;;;;;;;;2.85;100.00;95819.50;5085571;28;19964;-73
2023/12/08 09:44:32;;;;;;;;;;;;;;;2.89;100.00;95822.53;5085170;28;19967;-74
2023/12/08 09:47:00;;;;;;;;;;;;;;;2.92;100.00;95818.75;5085137;28;19972;-74
2023/12/08 09:49:30;;;;;;;;;;;;;;;2.94;100.00;95824.53;5085233;28;19957;-74
2023/12/08 09:51:57;;;;;;;;;;;;;;;2.99;100.00;95819.63;5085337;28;20229;-73
2023/12/08 09:54:23;;;;;;;;;;;;;;;3.01;100.00;95828.81;5084877;28;19952;-72
2023/12/08 09:56:53;;;;;;;;;;;;;;;3.07;100.00;95835.03;5085380;28;19965;-72
2023/12/08 09:59:22;;;;;;;;;;;;;;;3.10;100.00;95837.25;5084957;28;19965;-72
2023/12/08 10:01:48;;;;;;;;;;;;;;;3.12;100.00;95832.69;5084278;28;19970;-72
2023/12/08 10:04:14;;;;;;;;;;;;;;;3.17;100.00;95830.34;5085101;28;19962;-72
2023/12/08 10:06:40;;;;;;;;;;;;;;;3.19;100.00;95833.56;5084927;28;19968;-72
2023/12/08 10:09:06;;;;;;;;;;;;;;;3.22;100.00;95832.38;5083610;28;20260;-72
2023/12/08 10:11:33;;;;;;;;;;;;;;;3.23;100.00;95833.97;5085029;28;19963;-73
2023/12/08 10:14:00;;;;;;;;;;;;;;;3.25;100.00;95832.00;5083361;28;19953;-72
2023/12/08 10:16:26;;;;;;;;;;;;;;;3.28;100.00;95830.84;5083327;28;19957;-71
2023/12/08 10:19:02;;;;;;;;;;;;;;;3.29;100.00;95827.25;5083459;28;19995;-72
2023/12/08 10:21:27;;;;;;;;;;;;;;;3.31;100.00;95835.63;5084886;28;20138;-71
2023/12/08 10:23:59;;;;;;;;;;;;;;;3.32;100.00;95843.25;5083713;28;19959;-71
2023/12/08 10:26:26;;;;;;;;;;;;;;;3.32;100.00;95838.06;5083175;28;19973;-71
2023/12/08 10:28:55;;;;;;;;;;;;;;;3.34;100.00;95830.06;5083513;28;19953;-71
2023/12/08 10:31:21;;;;;;;;;;;;;;;3.34;100.00;95838.66;5083468;28;19980;-74
2023/12/08 10:33:50;;;;;;;;;;;;;;;3.36;100.00;95828.09;5083318;28;19960;-72
2023/12/08 10:36:16;;;;;;;;;;;;;;;3.38;100.00;95833.88;5083230;28;19979;-72
2023/12/08 10:38:42;;;;;;;;;;;;;;;3.38;100.00;95828.72;5084428;28;19960;-72
2023/12/08 10:41:08;;;;;;;;;;;;;;;3.40;100.00;95830.16;5084116;28;19970;-72
2023/12/08 10:43:36;;;;;;;;;;;;;;;3.44;100.00;95823.59;5084015;28;19955;-73
2023/12/08 10:46:03;;;;;;;;;;;;;;;3.48;100.00;95813.63;5084558;28;19971;-73
2023/12/08 10:48:29;;;;;;;;;;;;;;;3.52;100.00;95809.69;5084478;28;19955;-71
2023/12/08 10:50:56;;;;;;;;;;;;;;;3.57;100.00;95811.69;5085142;28;19972;-74
2023/12/08 10:53:22;;;;;;;;;;;;;;;3.62;100.00;95819.72;5082657;28;19956;-71
2023/12/08 10:56:03;;;;;;;;;;;;;;;3.64;100.00;95818.53;5065872;28;19949;-71
2023/12/08 10:58:32;;;;;;;;;;;;;;;3.66;100.00;95813.97;5083200;28;19960;-71
2023/12/08 11:00:58;;;;;;;;;;;;;;;3.70;100.00;95811.81;5082465;28;19957;-71
2023/12/08 11:03:31;;;;;;;;;;;;;;;3.73;100.00;95803.63;5084091;28;19962;-71
2023/12/08 11:06:06;;;;;;;;;;;;;;;3.78;100.00;95809.06;5084265;28;20246;-71
2023/12/08 11:08:33;;;;;;;;;;;;;;;3.78;100.00;95803.88;5084268;28;20268;-73
2023/12/08 11:11:01;;;;;;;;;;;;;;;3.82;100.00;95815.47;5083447;28;20146;-73
2023/12/08 11:13:28;;;;;;;;;;;;;;;3.84;100.00;95813.50;5084091;28;19967;-74
2023/12/08 11:16:09;;;;;;;;;;;;;;;3.84;100.00;95812.66;5084332;28;19962;-74
2023/12/08 11:18:36;;;;;;;;;;;;;;;3.84;100.00;95812.66;5084314;28;19955;-74
2023/12/08 11:21:06;;;;;;;;;;;;;;;3.85;100.00;95809.88;5084735;28;20131;-73
2023/12/08 11:23:32;;;;;;;;;;;;;;;3.85;100.00;95812.47;5084555;28;20136;-73
2023/12/08 11:26:04;;;;;;;;;;;;;;;3.87;100.00;95814.91;5084184;28;19961;-73
2023/12/08 11:28:42;;;;;;;;;;;;;;;3.89;100.00;95818.09;5083172;28;19959;-70
2023/12/08 11:31:22;;;;;;;;;;;;;;;3.91;100.00;95816.13;5082956;28;19952;-70
2023/12/08 11:34:14;;;;;;;;;;;;;;;3.95;100.00;95813.91;5084321;28;19964;-70
2023/12/08 11:36:46;;;;;;;;;;;;;;;3.96;100.00;95818.13;5025862;28;19967;-70
2023/12/08 11:39:30;;;;;;;;;;;;;;;3.99;100.00;95815.97;5041772;28;20307;-70
2023/12/08 11:41:56;;;;;;;;;;;;;;;4.01;100.00;95813.16;5041737;28;19958;-70
2023/12/08 11:44:22;;;;;;;;;;;;;;;4.02;100.00;95812.97;5042313;28;19964;-74
2023/12/08 11:46:51;;;;;;;;;;;;;;;4.04;100.00;95820.56;5024974;28;19977;-70
2023/12/08 11:49:18;;;;;;;;;;;;;;;4.06;100.00;95819.38;5024293;28;19958;-70
2023/12/08 11:52:02;;;;;;;;;;;;;;;4.10;100.00;95817.22;5041487;28;19966;-70
2023/12/08 11:54:28;;;;;;;;;;;;;;;4.12;100.00;95820.41;5025400;28;19984;-69
2023/12/08 11:56:54;;;;;;;;;;;;;;;4.13;100.00;95823.81;5041684;28;19958;-70
2023/12/08 11:59:22;;;;;;;;;;;;;;;4.15;100.00;95819.22;5040733;28;20288;-70
2023/12/08 12:01:48;;;;;;;;;;;;;;;4.15;100.00;95812.22;5041445;28;19958;-74
2023/12/08 12:04:14;;;;;;;;;;;;;;;4.17;100.00;95815.44;5041777;28;19952;-73
2023/12/08 12:06:42;;;;;;;;;;;;;;;4.19;100.00;95816.03;5028134;28;20012;-74
2023/12/08 12:09:08;;;;;;;;;;;;;;;4.20;100.00;95804.69;5082029;28;20277;-74
2023/12/08 12:11:37;;;;;;;;;;;;;;;4.21;100.00;95801.06;5083588;28;19962;-73
2023/12/08 12:14:04;;;;;;;;;;;;;;;4.23;100.00;95812.06;5082197;28;20239;-74
2023/12/08 12:16:30;;;;;;;;;;;;;;;4.25;100.00;95817.88;5082331;28;19964;-73
2023/12/08 12:18:56;;;;;;;;;;;;;;;4.25;100.00;95804.88;5083551;28;19964;-73
2023/12/08 12:21:22;;;;;;;;;;;;;;;4.28;100.00;95806.28;5083000;28;19950;-70
2023/12/08 12:23:47;;;;;;;;;;;;;;;4.29;100.00;95799.31;5086124;28;19964;-74
2023/12/08 12:26:14;;;;;;;;;;;;;;;4.30;100.00;95804.31;5087301;28;20241;-74
2023/12/08 12:28:40;;;;;;;;;;;;;;;4.34;100.00;95817.69;5086700;28;19982;-73
2023/12/08 12:31:06;;;;;;;;;;;;;;;4.35;100.00;95821.91;5087073;28;20243;-74
2023/12/08 12:33:36;;;;;;;;;;;;;;;4.37;100.00;95823.31;5086780;28;19962;-73
2023/12/08 12:36:03;;;;;;;;;;;;;;;4.38;100.00;95819.72;5086785;28;20123;-73
2023/12/08 12:38:29;;;;;;;;;;;;;;;4.40;100.00;95814.34;5085202;28;20266;-72
2023/12/08 12:40:55;;;;;;;;;;;;;;;4.42;100.00;95812.34;5086827;28;19957;-73
2023/12/08 12:43:21;;;;;;;;;;;;;;;4.43;100.00;95804.38;5086414;28;19962;-76